Time;durP1;ratioP1;P1;durP2;ratioP2;P2;SDS_P1;SDS_P2;PMS_P1;PMS_P2;Temp;Humidity;BMP_temperature;BMP_pressure;BME280_temperature;BME280_humidity;BME280_pressure;Samples;Min_cycle;Max_cycle;Signal;HPM_P1;HPM_P2
2023/03/17 07:09:39;;;;;;;5.28;2.10;;;;;;;10.12;45.93;96128.59;2085311;28;20585;-61
2023/03/17 07:33:24;;;;;;;5.82;1.90;;;;;;;10.54;46.40;96141.25;2083160;28;20607;-61
2023/03/17 07:39:49;;;;;;;5.35;2.70;;;;;;;11.03;45.97;96135.19;2084198;28;20582;-60
2023/03/17 07:40:51;;;;;;;3.83;1.85;;;;;;;11.00;45.53;96140.59;2082228;28;20208;-60
2023/03/17 07:41:56;;;;;;;11.63;2.22;;;;;;;11.04;45.27;96123.81;2081664;28;20200;-60
2023/03/17 07:42:58;;;;;;;4.97;2.58;;;;;;;11.32;44.66;96128.34;2083647;28;20691;-60
2023/03/17 07:44:00;;;;;;;4.55;2.13;;;;;;;11.70;44.11;96122.72;2077746;28;20853;-61
2023/03/17 07:45:04;;;;;;;5.35;2.10;;;;;;;12.01;43.97;96133.22;2071211;28;20198;-61
2023/03/17 07:46:06;;;;;;;4.85;2.75;;;;;;;12.35;42.80;96126.81;2072038;28;20226;-61
2023/03/17 07:47:09;;;;;;;4.80;2.05;;;;;;;12.46;42.44;96126.19;2074262;28;20332;-61
2023/03/17 07:48:11;;;;;;;6.32;2.65;;;;;;;12.65;42.42;96127.69;2072873;28;20206;-60
2023/03/17 07:49:13;;;;;;;9.20;1.80;;;;;;;12.62;42.97;96131.34;2072952;28;20222;-60
2023/03/17 07:50:15;;;;;;;8.32;2.30;;;;;;;12.94;42.42;96125.88;2074617;28;20561;-60
2023/03/17 07:51:21;;;;;;;5.60;1.88;;;;;;;13.11;42.17;96121.38;2076172;28;20205;-61
2023/03/17 07:52:22;;;;;;;5.90;2.30;;;;;;;13.41;41.97;96128.25;2075887;28;20538;-61
2023/03/17 07:53:24;;;;;;;4.18;2.35;;;;;;;13.60;42.03;96128.75;2075089;28;20235;-61
2023/03/17 07:54:27;;;;;;;5.85;2.50;;;;;;;13.92;41.40;96135.44;2074397;28;20229;-61
2023/03/17 07:55:30;;;;;;;2.70;1.80;;;;;;;13.81;40.38;96120.41;2074192;28;20205;-61
2023/03/17 07:56:32;;;;;;;2.85;1.58;;;;;;;14.30;39.98;96135.50;2074784;28;20231;-61
2023/03/17 07:57:33;;;;;;;5.20;2.00;;;;;;;14.56;39.63;96139.91;2073900;28;20822;-61
2023/03/17 07:58:35;;;;;;;4.18;2.08;;;;;;;14.65;39.32;96134.06;2073999;28;20190;-61
2023/03/17 07:59:38;;;;;;;4.32;2.40;;;;;;;15.04;39.73;96147.16;2073064;28;20218;-61
2023/03/17 08:00:40;;;;;;;4.13;2.13;;;;;;;15.31;38.43;96139.94;2073414;28;20224;-61
2023/03/17 08:01:41;;;;;;;3.78;2.22;;;;;;;15.34;38.20;96144.97;2070986;28;20202;-61
2023/03/17 08:02:43;;;;;;;3.35;2.33;;;;;;;15.48;38.05;96146.59;2073123;28;20202;-61
2023/03/17 08:03:44;;;;;;;5.07;1.85;;;;;;;15.65;37.65;96119.06;2073963;28;20201;-61
2023/03/17 08:04:46;;;;;;;3.60;1.75;;;;;;;16.11;37.10;96141.19;2075309;28;20205;-61
2023/03/17 08:05:54;;;;;;;6.45;2.00;;;;;;;15.68;37.44;96136.44;2074824;28;20198;-61
2023/03/17 08:06:56;;;;;;;4.10;1.73;;;;;;;15.71;37.55;96130.09;2073297;28;20575;-61
2023/03/17 08:07:58;;;;;;;3.63;2.00;;;;;;;15.38;37.95;96135.06;2070759;28;20216;-61
2023/03/17 08:08:59;;;;;;;2.95;1.42;;;;;;;15.17;38.80;96129.56;2072923;28;20220;-61
2023/03/17 08:10:02;;;;;;;5.70;1.73;;;;;;;15.14;38.44;96125.34;2072225;28;20229;-60
2023/03/17 08:11:04;;;;;;;4.80;2.40;;;;;;;15.40;38.80;96121.81;2074432;28;20194;-61
2023/03/17 08:12:05;;;;;;;6.25;3.20;;;;;;;15.59;39.25;96129.19;2072875;28;20554;-61
2023/03/17 08:13:07;;;;;;;3.15;2.05;;;;;;;15.70;38.23;96129.25;2074121;28;20208;-61
2023/03/17 08:14:09;;;;;;;5.65;2.10;;;;;;;15.40;39.38;96127.91;2073901;28;20804;-61
2023/03/17 08:15:11;;;;;;;3.95;2.25;;;;;;;15.11;39.50;96125.59;2072309;28;20698;-61
2023/03/17 08:16:13;;;;;;;8.07;2.08;;;;;;;15.68;38.73;96131.16;2071509;28;20288;-61
2023/03/17 08:17:15;;;;;;;4.35;1.60;;;;;;;15.51;38.79;96127.97;2073251;28;20225;-61
2023/03/17 08:18:17;;;;;;;12.65;2.38;;;;;;;15.66;38.82;96123.38;2073891;28;20306;-61
2023/03/17 08:19:18;;;;;;;6.15;1.80;;;;;;;15.42;38.94;96130.44;2072672;28;20317;-61
2023/03/17 08:20:20;;;;;;;6.43;2.35;;;;;;;15.81;38.47;96129.34;2070734;28;20833;-61
2023/03/17 08:21:22;;;;;;;5.10;2.20;;;;;;;16.23;38.07;96134.13;2071504;28;20197;-61
2023/03/17 08:22:23;;;;;;;6.32;1.88;;;;;;;16.87;36.87;96126.66;2073731;28;20198;-61
2023/03/17 08:23:25;;;;;;;5.38;1.88;;;;;;;16.56;37.67;96118.53;2072620;28;20707;-61
2023/03/17 08:24:26;;;;;;;4.70;1.85;;;;;;;15.89;37.60;96127.94;2073237;28;20295;-61
2023/03/17 08:25:28;;;;;;;3.10;1.73;;;;;;;16.34;37.01;96112.25;2071371;28;20233;-61
2023/03/17 08:26:31;;;;;;;2.85;1.30;;;;;;;15.93;36.29;96118.84;2070100;28;20198;-61
2023/03/17 08:27:32;;;;;;;7.13;1.50;;;;;;;15.71;38.12;96115.16;2072303;28;20198;-61
2023/03/17 08:28:34;;;;;;;6.28;1.77;;;;;;;16.12;38.04;96118.31;2074294;28;20208;-61
2023/03/17 08:29:36;;;;;;;4.60;1.83;;;;;;;15.94;38.25;96121.34;2074031;28;20213;-61
2023/03/17 08:30:37;;;;;;;6.45;2.25;;;;;;;15.76;38.31;96118.28;2073992;28;20205;-61
2023/03/17 08:31:40;;;;;;;3.72;2.00;;;;;;;14.92;39.70;96120.78;2074455;28;20343;-61
2023/03/17 08:32:42;;;;;;;4.95;2.15;;;;;;;14.08;41.13;96104.63;2070699;28;20220;-61
2023/03/17 08:33:47;;;;;;;5.63;1.80;;;;;;;14.90;40.35;96106.06;2070713;28;20202;-61
2023/03/17 08:34:52;;;;;;;4.10;2.40;;;;;;;16.20;38.69;96120.34;2070569;28;20291;-60
2023/03/17 08:35:53;;;;;;;4.60;2.10;;;;;;;16.68;37.75;96120.19;2071482;28;20301;-60
2023/03/17 08:36:55;;;;;;;3.60;1.90;;;;;;;16.53;37.38;96119.59;2070738;28;20198;-60
2023/03/17 08:37:56;;;;;;;4.75;1.75;;;;;;;15.97;38.08;96122.91;2072573;28;20209;-61
2023/03/17 08:38:58;;;;;;;3.15;1.67;;;;;;;16.42;37.83;96106.41;2074546;28;20233;-60
2023/03/17 08:40:00;;;;;;;4.07;2.05;;;;;;;16.80;37.34;96121.88;2074821;28;20214;-60
2023/03/17 08:41:07;;;;;;;3.13;1.67;;;;;;;16.83;36.16;96117.31;2073620;28;20251;-61
2023/03/17 08:42:09;;;;;;;4.15;1.58;;;;;;;17.00;36.87;96116.88;2070581;28;20198;-61
2023/03/17 08:43:10;;;;;;;6.90;2.05;;;;;;;17.74;35.28;96115.38;2071329;28;20286;-61
2023/03/17 08:44:13;;;;;;;3.63;2.00;;;;;;;17.36;35.82;96116.69;2073733;28;20229;-61
2023/03/17 08:45:17;;;;;;;5.50;1.73;;;;;;;16.80;36.82;96123.69;2074163;28;20612;-60
2023/03/17 08:46:24;;;;;;;3.55;1.80;;;;;;;16.61;37.38;96124.28;2072660;28;20200;-61
2023/03/17 08:47:26;;;;;;;3.75;2.10;;;;;;;17.75;35.87;96124.97;2074198;28;21037;-60
2023/03/17 08:48:29;;;;;;;4.25;1.80;;;;;;;18.00;35.32;96121.16;2072835;28;20198;-61
2023/03/17 08:49:33;;;;;;;4.20;1.70;;;;;;;18.54;35.14;96119.31;2072121;28;20561;-61
2023/03/17 08:50:35;;;;;;;4.18;2.00;;;;;;;17.63;36.54;96119.72;2072286;28;20827;-61
2023/03/17 08:51:38;;;;;;;2.78;1.77;;;;;;;17.49;36.41;96124.47;2065089;28;20207;-60
2023/03/17 08:52:39;;;;;;;4.30;1.90;;;;;;;17.21;36.15;96119.59;2066847;28;20203;-61
2023/03/17 08:53:41;;;;;;;2.15;1.48;;;;;;;16.52;38.05;96122.31;2066801;28;20197;-61
2023/03/17 08:54:43;;;;;;;3.38;1.70;;;;;;;16.21;38.69;96129.94;2067805;28;20209;-61
2023/03/17 08:55:44;;;;;;;4.57;2.20;;;;;;;16.46;38.25;96115.75;2067149;28;20295;-61
2023/03/17 08:56:46;;;;;;;4.75;1.75;;;;;;;15.84;38.88;96120.38;2068623;28;21154;-61
2023/03/17 08:57:47;;;;;;;4.97;2.20;;;;;;;15.86;39.05;96114.97;2068774;28;20233;-60
2023/03/17 08:58:50;;;;;;;8.73;1.90;;;;;;;15.74;39.18;96104.38;2069102;28;20195;-61
2023/03/17 08:59:51;;;;;;;4.10;1.73;;;;;;;15.52;39.75;96115.66;2065955;28;20201;-60
2023/03/17 09:00:53;;;;;;;4.97;2.20;;;;;;;16.14;39.51;96114.59;2067839;28;20201;-60
2023/03/17 09:01:55;;;;;;;4.38;1.60;;;;;;;16.34;39.30;96109.63;2070367;28;20205;-60
2023/03/17 09:02:57;;;;;;;4.38;2.00;;;;;;;16.02;39.42;96118.16;2068413;28;20642;-60
2023/03/17 09:03:59;;;;;;;3.10;1.83;;;;;;;15.35;39.44;96119.53;2066999;28;20313;-60
2023/03/17 09:05:01;;;;;;;4.97;1.75;;;;;;;15.26;39.70;96117.53;2067713;28;20201;-60
2023/03/17 09:06:05;;;;;;;4.55;2.08;;;;;;;15.78;40.01;96119.00;2067464;28;20233;-60
2023/03/17 09:07:09;;;;;;;4.55;1.98;;;;;;;16.69;37.75;96121.88;2068271;28;20276;-60
2023/03/17 09:08:11;;;;;;;3.95;1.92;;;;;;;17.81;36.25;96115.72;2068462;28;20206;-60
2023/03/17 09:09:13;;;;;;;5.20;1.63;;;;;;;16.84;37.60;96111.94;2067848;28;20225;-60
2023/03/17 09:10:20;;;;;;;2.67;1.70;;;;;;;17.03;37.36;96116.63;2068111;28;20249;-60
2023/03/17 09:11:24;;;;;;;3.33;1.35;;;;;;;17.40;37.21;96105.75;2064645;28;20833;-60
2023/03/17 09:12:26;;;;;;;9.02;2.20;;;;;;;17.69;36.33;96110.47;2068040;28;20199;-60
2023/03/17 09:13:28;;;;;;;3.55;1.40;;;;;;;18.00;36.28;96112.41;2068793;28;20247;-60
2023/03/17 09:14:29;;;;;;;3.80;1.50;;;;;;;18.70;35.72;96112.69;2068108;28;20744;-60
2023/03/17 09:15:43;;;;;;;3.30;1.42;;;;;;;19.49;34.71;96117.31;2068017;28;20252;-60
2023/03/17 09:16:47;;;;;;;3.28;1.40;;;;;;;19.13;34.31;96122.22;2067862;28;20193;-60
2023/03/17 09:17:49;;;;;;;3.15;1.60;;;;;;;19.23;33.79;96119.63;2066709;28;20195;-60
2023/03/17 09:18:51;;;;;;;5.10;1.80;;;;;;;19.17;34.00;96115.72;2066094;28;20219;-61
2023/03/17 09:19:52;;;;;;;2.58;1.50;;;;;;;19.34;34.38;96124.81;2068082;28;20345;-61
2023/03/17 09:20:54;;;;;;;3.25;1.33;;;;;;;19.92;34.03;96115.25;2064638;28;20202;-61
2023/03/17 09:21:55;;;;;;;2.45;1.27;;;;;;;20.39;33.50;96125.97;2065399;28;20209;-61
2023/03/17 09:22:57;;;;;;;7.70;1.98;;;;;;;20.00;32.46;96118.06;2068945;28;21160;-61
2023/03/17 09:23:59;;;;;;;2.67;1.30;;;;;;;19.57;33.54;96127.22;2074894;28;20307;-61
2023/03/17 09:25:03;;;;;;;3.83;1.30;;;;;;;19.13;33.38;96122.22;2075156;28;20674;-60
2023/03/17 09:26:04;;;;;;;2.70;1.30;;;;;;;19.39;34.29;96119.09;2069004;28;20202;-61
2023/03/17 09:27:06;;;;;;;2.78;1.63;;;;;;;19.69;33.19;96117.31;2064788;28;20632;-61
2023/03/17 09:28:11;;;;;;;3.13;1.48;;;;;;;19.83;33.35;96113.47;2066948;28;20261;-61
2023/03/17 09:29:12;;;;;;;3.40;1.35;;;;;;;19.85;33.32;96104.41;2064704;28;20748;-61
2023/03/17 09:30:15;;;;;;;2.47;1.25;;;;;;;20.67;32.93;85642.50;2066825;28;20337;-61
2023/03/17 09:31:16;;;;;;;3.47;1.30;;;;;;;21.39;31.64;96114.88;2069741;28;20204;-61
2023/03/17 09:32:18;;;;;;;3.78;1.20;;;;;;;21.39;31.64;96114.88;2066648;28;20224;-61
2023/03/17 09:33:20;;;;;;;2.10;1.10;;;;;;;21.12;31.51;96121.88;2068606;28;20665;-61
2023/03/17 09:34:23;;;;;;;3.25;1.48;;;;;;;20.79;32.25;96115.31;2064281;28;20249;-61
2023/03/17 09:35:30;;;;;;;13.13;1.60;;;;;;;21.80;32.49;96115.34;2066146;28;20202;-61
2023/03/17 09:36:32;;;;;;;3.40;1.63;;;;;;;22.52;32.14;96106.47;2067850;28;20199;-61
2023/03/17 09:37:34;;;;;;;4.65;1.40;;;;;;;23.39;31.83;96108.22;2068082;28;20225;-61
2023/03/17 09:38:36;;;;;;;4.45;1.67;;;;;;;23.76;31.50;96120.34;2066238;28;20627;-61
2023/03/17 09:39:37;;;;;;;7.43;1.67;;;;;;;24.21;30.58;96119.06;2065828;28;20483;-61
2023/03/17 09:40:46;;;;;;;5.60;1.88;;;;;;;24.52;30.23;96118.38;2067442;28;20321;-62
2023/03/17 09:41:55;;;;;;;9.10;1.50;;;;;;;24.13;30.26;96116.41;2064960;28;20206;-61
2023/03/17 09:43:10;;;;;;;11.73;2.42;;;;;;;22.66;31.09;96115.69;2065529;28;20211;-61
2023/03/17 09:44:33;;;;;;;7.15;1.80;;;;;;;23.42;32.88;96107.94;2071782;28;20264;-61
2023/03/17 09:45:37;;;;;;;7.25;2.10;;;;;;;24.21;32.34;96113.72;2071373;28;20202;-61
2023/03/17 09:46:54;;;;;;;13.68;1.63;;;;;;;24.57;29.96;96117.84;2068313;28;20199;-61
2023/03/17 09:48:32;;;;;;;6.75;1.80;;;;;;;25.42;31.35;96114.66;2067904;28;20202;-61
2023/03/17 09:49:41;;;;;;;3.90;1.75;;;;;;;25.29;30.57;96111.69;2062715;28;20876;-61
2023/03/17 09:50:57;;;;;;;3.70;0.93;;;;;;;24.60;30.81;96114.88;2063634;28;20205;-61
2023/03/17 09:51:59;;;;;;;2.90;1.42;;;;;;;24.10;30.99;96096.22;2065760;28;20233;-62
2023/03/17 09:53:03;;;;;;;5.15;1.10;;;;;;;23.87;31.17;96108.50;2067164;28;20674;-62
2023/03/17 09:54:25;;;;;;;2.10;1.30;;;;;;;24.34;30.68;96104.38;2065829;28;20237;-62
2023/03/17 09:55:29;;;;;;;3.35;1.70;;;;;;;25.35;28.63;96096.81;2069720;28;20197;-62
2023/03/17 09:56:33;;;;;;;4.93;1.25;;;;;;;25.35;28.63;96096.81;2068240;28;20206;-62
2023/03/17 09:57:37;;;;;;;5.75;1.45;;;;;;;22.79;31.03;96097.50;2065873;28;20194;-62
2023/03/17 09:58:41;;;;;;;3.72;1.50;;;;;;;22.83;31.19;96101.50;2066952;28;20249;-62
2023/03/17 09:59:49;;;;;;;13.50;1.25;;;;;;;22.55;31.14;96106.16;2075261;28;20193;-61
2023/03/17 10:00:51;;;;;;;7.65;1.20;;;;;;;21.56;32.33;96097.34;2068292;28;20572;-61
2023/03/17 10:01:52;;;;;;;4.80;1.33;;;;;;;22.05;31.94;96098.78;2068437;28;20198;-62
2023/03/17 10:02:57;;;;;;;6.47;1.63;;;;;;;23.04;30.91;96096.78;2064421;28;20283;-62
2023/03/17 10:04:01;;;;;;;2.55;1.45;;;;;;;23.27;31.28;96097.91;2066318;28;20222;-62
2023/03/17 10:05:10;;;;;;;9.00;1.50;;;;;;;23.14;32.06;96092.16;2067783;28;20742;-62
2023/03/17 10:06:37;;;;;;;2.72;1.27;;;;;;;23.16;32.33;96095.53;2066529;28;20661;-62
2023/03/17 10:07:48;;;;;;;7.18;1.85;;;;;;;23.24;31.06;96098.22;2064453;28;20203;-62
2023/03/17 10:09:04;;;;;;;5.40;1.50;;;;;;;23.43;31.20;96086.44;2066793;28;20210;-62
2023/03/17 10:10:38;;;;;;;7.00;1.38;;;;;;;23.25;31.98;96096.38;2075058;28;20236;-61
2023/03/17 10:11:46;;;;;;;11.05;2.15;;;;;;;22.40;32.95;96092.59;2049900;28;20214;-62
2023/03/17 10:13:08;;;;;;;6.72;1.83;;;;;;;22.28;33.23;96073.38;2052691;28;20200;-62
2023/03/17 10:14:47;;;;;;;3.40;1.48;;;;;;;22.28;32.91;96091.13;2067242;28;20226;-62
2023/03/17 10:16:16;;;;;;;12.80;1.50;;;;;;;22.07;33.08;96087.00;2066423;28;20205;-62
2023/03/17 10:17:20;;;;;;;11.77;1.50;;;;;;;21.43;34.17;96084.38;2068171;28;20204;-62
2023/03/17 10:18:28;;;;;;;11.57;2.05;;;;;;;21.48;34.46;96083.94;2066752;28;20647;-62
2023/03/17 10:20:10;;;;;;;6.05;1.40;;;;;;;21.02;34.54;96089.22;2063999;28;20701;-62
2023/03/17 10:21:17;;;;;;;10.07;1.48;;;;;;;21.07;34.21;96079.00;2059580;28;20256;-62
2023/03/17 10:22:29;;;;;;;3.45;1.75;;;;;;;21.27;34.31;96085.03;2058790;28;20427;-62
2023/03/17 10:23:34;;;;;;;5.63;1.33;;;;;;;21.01;34.91;96082.25;2059695;28;20199;-62
2023/03/17 10:24:40;;;;;;;8.77;1.80;;;;;;;21.39;33.95;96082.19;2058983;28;20225;-62
2023/03/17 10:25:42;;;;;;;7.05;1.67;;;;;;;20.82;35.05;96083.16;2059184;28;20665;-62
2023/03/17 10:26:48;;;;;;;10.68;1.58;;;;;;;19.82;36.86;96079.97;2057891;28;20199;-62
2023/03/17 10:27:56;;;;;;;14.23;1.52;;;;;;;20.23;36.59;96080.66;2057474;28;20249;-62
2023/03/17 10:29:02;;;;;;;4.18;1.20;;;;;;;20.68;35.73;96084.44;2058849;28;20321;-62
2023/03/17 10:30:14;;;;;;;4.38;1.60;;;;;;;21.09;35.17;96081.50;2051842;28;20203;-62
2023/03/17 10:31:34;;;;;;;5.07;1.42;;;;;;;21.40;34.21;96078.56;2053214;28;20204;-61
2023/03/17 10:32:38;;;;;;;2.13;1.23;;;;;;;19.93;34.79;96084.31;2059725;28;20207;-61
2023/03/17 10:33:39;;;;;;;4.80;1.60;;;;;;;18.62;35.98;96078.16;2058920;28;20930;-61
2023/03/17 10:34:42;;;;;;;9.40;1.58;;;;;;;18.95;36.37;96069.13;2059151;28;20203;-61
2023/03/17 10:35:44;;;;;;;3.65;1.40;;;;;;;18.49;37.29;96073.09;2058730;28;20198;-61
2023/03/17 10:36:53;;;;;;;2.78;1.42;;;;;;;19.21;37.08;96077.41;2058674;28;20198;-61
2023/03/17 10:37:54;;;;;;;6.18;1.80;;;;;;;19.02;36.48;96072.91;2059847;28;20549;-61
2023/03/17 10:39:18;;;;;;;3.55;1.50;;;;;;;19.33;36.81;96082.59;2060047;28;20234;-60
2023/03/17 10:40:25;;;;;;;4.03;1.55;;;;;;;19.27;36.47;96075.19;2059488;28;20205;-60
2023/03/17 10:41:28;;;;;;;5.38;1.55;;;;;;;19.37;36.25;96076.03;2058695;28;20215;-60
2023/03/17 10:42:31;;;;;;;3.80;1.65;;;;;;;20.21;35.37;96072.88;2059482;28;20640;-60
2023/03/17 10:43:38;;;;;;;6.63;1.30;;;;;;;19.90;34.80;96080.16;2061647;28;20191;-60
2023/03/17 10:44:49;;;;;;;5.28;2.13;;;;;;;20.10;35.17;96088.06;2060816;28;20264;-60
2023/03/17 10:46:18;;;;;;;4.45;1.55;;;;;;;20.38;33.70;96065.97;2054520;28;20202;-60
2023/03/17 10:47:37;;;;;;;8.98;2.00;;;;;;;21.41;33.43;96075.75;2054475;28;20218;-60
2023/03/17 10:48:38;;;;;;;2.88;1.20;;;;;;;21.91;33.29;96073.56;2053265;28;20241;-60
2023/03/17 10:49:43;;;;;;;2.70;1.30;;;;;;;21.64;32.94;96070.84;2046573;28;20420;-61
2023/03/17 10:50:45;;;;;;;3.17;1.40;;;;;;;21.38;32.44;96076.03;2055184;28;20415;-61
2023/03/17 10:51:54;;;;;;;2.92;1.17;;;;;;;21.65;32.99;96069.03;2058934;28;20202;-61
2023/03/17 10:52:57;;;;;;;2.88;1.40;;;;;;;22.41;32.62;96074.78;2058925;28;20198;-61
2023/03/17 10:54:02;;;;;;;5.68;1.40;;;;;;;20.80;33.49;96078.00;2058484;28;20642;-61
2023/03/17 10:55:05;;;;;;;3.45;1.92;;;;;;;19.61;35.77;96072.19;2059053;28;20268;-60
2023/03/17 10:56:08;;;;;;;3.28;1.08;;;;;;;20.29;34.92;96077.44;2061281;28;20203;-61
2023/03/17 10:57:13;;;;;;;3.58;1.73;;;;;;;20.63;34.26;96073.44;2067705;28;20365;-61
2023/03/17 10:58:37;;;;;;;2.72;1.10;;;;;;;21.10;33.76;96061.94;2066608;28;20203;-60
2023/03/17 10:59:46;;;;;;;3.15;1.15;;;;;;;21.33;34.15;96071.19;2065408;28;20222;-61
2023/03/17 11:00:55;;;;;;;2.65;1.10;;;;;;;20.63;34.71;96063.69;2069133;28;20225;-61
2023/03/17 11:02:00;;;;;;;6.10;1.50;;;;;;;20.39;36.08;96062.34;2066911;28;20631;-61
2023/03/17 11:03:27;;;;;;;35.00;3.10;;;;;;;21.37;36.27;96059.25;2065647;28;20194;-61
2023/03/17 11:04:31;;;;;;;17.95;2.67;;;;;;;21.89;35.66;96063.09;2066065;28;20229;-61
2023/03/17 11:05:32;;;;;;;10.95;2.50;;;;;;;21.90;35.51;96048.81;2065589;28;20194;-61
2023/03/17 11:06:42;;;;;;;13.27;1.45;;;;;;;19.99;36.55;96060.75;2064710;28;20202;-62
2023/03/17 11:07:44;;;;;;;4.25;1.33;;;;;;;19.55;36.49;96058.53;2066646;28;20523;-62
2023/03/17 11:08:54;;;;;;;4.57;1.70;;;;;;;19.22;37.03;96057.91;2070831;28;20194;-61
2023/03/17 11:10:00;;;;;;;3.50;1.45;;;;;;;18.85;37.59;96047.88;2069151;28;20232;-61
2023/03/17 11:11:25;;;;;;;6.38;1.88;;;;;;;19.26;37.01;96061.09;2066999;28;20198;-61
2023/03/17 11:12:49;;;;;;;2.80;1.65;;;;;;;19.21;36.87;96058.88;2066725;28;20709;-60
2023/03/17 11:14:04;;;;;;;4.80;1.63;;;;;;;18.42;37.78;96049.84;2065605;28;20194;-61
2023/03/17 11:15:12;;;;;;;10.95;1.80;;;;;;;18.29;38.87;96049.19;2067941;28;20201;-61
2023/03/17 11:16:22;;;;;;;3.97;1.40;;;;;;;18.44;38.79;96047.03;2068029;28;20506;-61
2023/03/17 11:17:32;;;;;;;4.28;1.60;;;;;;;18.38;39.61;96048.41;2068066;28;20198;-61
2023/03/17 11:18:36;;;;;;;5.35;1.73;;;;;;;19.22;38.63;96051.78;2065639;28;20781;-61
2023/03/17 11:19:41;;;;;;;14.15;2.85;;;;;;;19.87;37.84;96048.63;2067915;28;20209;-61
2023/03/17 11:20:46;;;;;;;13.25;3.17;;;;;;;20.19;37.54;96040.34;2066142;28;20244;-61
2023/03/17 11:22:10;;;;;;;13.75;2.88;;;;;;;20.84;36.87;96042.25;2066474;28;20566;-61
2023/03/17 11:23:45;;;;;;;13.45;2.88;;;;;;;21.54;36.89;96033.69;2064064;28;20202;-61
2023/03/17 11:25:01;;;;;;;7.35;2.00;;;;;;;21.26;34.96;96045.38;2067018;28;20217;-61
2023/03/17 11:26:37;;;;;;;4.47;1.88;;;;;;;20.37;36.39;96042.25;2067127;28;20650;-61
2023/03/17 11:27:43;;;;;;;4.88;1.88;;;;;;;19.61;36.59;96037.75;2068011;28;20714;-61
2023/03/17 11:28:50;;;;;;;5.57;1.50;;;;;;;18.89;37.55;96040.53;2066858;28;20195;-61
2023/03/17 11:30:21;;;;;;;4.22;1.50;;;;;;;19.20;37.37;96033.41;2067525;28;20202;-61
2023/03/17 11:31:28;;;;;;;2.85;1.20;;;;;;;19.63;36.72;96027.84;2061400;28;20210;-61
2023/03/17 11:32:52;;;;;;;11.45;1.63;;;;;;;19.28;37.45;96023.94;2066890;28;20202;-61
2023/03/17 11:34:05;;;;;;;10.18;1.58;;;;;;;19.63;37.65;96033.13;2067599;28;20205;-61
2023/03/17 11:35:34;;;;;;;12.85;1.60;;;;;;;19.53;37.98;96036.63;2067135;28;20244;-61
2023/03/17 11:36:42;;;;;;;9.18;1.60;;;;;;;20.03;36.25;96027.69;2066376;28;20190;-61
2023/03/17 11:38:01;;;;;;;8.07;1.83;;;;;;;19.44;37.73;96034.81;2066569;28;20240;-61
2023/03/17 11:39:15;;;;;;;5.15;1.77;;;;;;;19.81;37.02;96031.47;2065943;28;20229;-60
2023/03/17 11:40:54;;;;;;;10.35;1.67;;;;;;;20.51;36.97;96019.75;2067068;28;20201;-61
2023/03/17 11:42:11;;;;;;;6.82;1.30;;;;;;;20.28;35.62;96033.34;2067192;28;20218;-61
2023/03/17 11:43:20;;;;;;;16.23;1.80;;;;;;;20.91;35.27;96029.22;2066072;28;20233;-61
2023/03/17 11:44:40;;;;;;;6.60;2.00;;;;;;;21.34;34.44;96025.06;2064429;28;20226;-61
2023/03/17 11:46:00;;;;;;;6.30;2.13;;;;;;;20.26;37.29;96027.34;2065737;28;20637;-61
2023/03/17 11:47:32;;;;;;;8.98;2.42;;;;;;;21.37;36.47;96023.91;2063835;28;20286;-61
2023/03/17 11:48:55;;;;;;;9.50;1.95;;;;;;;21.95;35.72;96027.94;2064903;28;20204;-61
2023/03/17 11:50:17;;;;;;;6.75;1.45;;;;;;;20.68;36.55;96021.63;2065491;28;20214;-61
2023/03/17 11:51:56;;;;;;;12.45;1.80;;;;;;;21.57;35.75;96016.66;2066290;28;20297;-61
2023/03/17 11:53:23;;;;;;;11.70;2.17;;;;;;;21.93;36.02;96018.44;2067165;28;20191;-61
2023/03/17 11:54:56;;;;;;;4.82;1.45;;;;;;;21.86;35.42;96010.25;2066073;28;20685;-61
2023/03/17 11:56:05;;;;;;;2.95;1.33;;;;;;;21.46;35.29;96006.25;2067688;28;20194;-61
2023/03/17 11:57:32;;;;;;;9.05;1.50;;;;;;;21.66;35.16;96015.75;2071106;28;20201;-61
2023/03/17 11:58:40;;;;;;;6.07;1.42;;;;;;;21.46;35.85;96012.38;2065252;28;20705;-61
2023/03/17 11:59:55;;;;;;;15.75;1.70;;;;;;;20.93;36.06;96019.28;2065809;28;20219;-61
2023/03/17 12:01:00;;;;;;;17.98;1.58;;;;;;;20.97;35.24;96017.19;2065338;28;20683;-61
2023/03/17 12:02:24;;;;;;;11.50;1.33;;;;;;;21.13;35.83;96019.19;2064668;28;20575;-62
2023/03/17 12:03:49;;;;;;;17.92;1.67;;;;;;;21.24;36.11;96000.38;2068792;28;20198;-62
2023/03/17 12:04:56;;;;;;;9.38;1.48;;;;;;;21.20;36.94;96021.09;2067910;28;20684;-61
2023/03/17 12:06:04;;;;;;;4.05;1.77;;;;;;;21.36;37.74;96008.97;2065743;28;20199;-61
2023/03/17 12:07:20;;;;;;;13.23;2.40;;;;;;;21.39;39.57;96016.63;2065609;28;20260;-61
2023/03/17 12:08:30;;;;;;;7.32;2.28;;;;;;;21.40;40.06;96020.13;2065672;28;20205;-62
2023/03/17 12:09:41;;;;;;;4.28;2.17;;;;;;;21.36;40.43;96007.13;2063997;28;20614;-61
2023/03/17 12:10:44;;;;;;;7.97;2.22;;;;;;;21.41;40.71;96009.34;2067323;28;20201;-61
2023/03/17 12:11:47;;;;;;;5.07;1.98;;;;;;;21.20;41.44;96007.81;2067881;28;20197;-61
2023/03/17 12:12:56;;;;;;;3.85;1.45;;;;;;;21.16;41.91;96011.75;2068046;28;20230;-61
2023/03/17 12:14:01;;;;;;;8.30;2.20;;;;;;;21.32;41.32;96008.44;2066341;28;20720;-60
2023/03/17 12:15:09;;;;;;;6.93;1.73;;;;;;;21.18;41.35;95999.16;2066291;28;20199;-61
2023/03/17 12:16:32;;;;;;;8.68;1.75;;;;;;;21.33;41.47;96004.81;2067934;28;20240;-61
2023/03/17 12:17:38;;;;;;;16.83;1.70;;;;;;;21.44;41.93;95997.59;2067097;28;20289;-61
2023/03/17 12:18:45;;;;;;;4.95;1.85;;;;;;;21.50;41.94;96002.28;2066416;28;20697;-60
2023/03/17 12:19:49;;;;;;;4.00;1.95;;;;;;;21.50;42.14;96000.47;2065331;28;20893;-61
2023/03/17 12:20:57;;;;;;;7.30;1.90;;;;;;;21.54;42.56;95996.50;2066983;28;20721;-61
2023/03/17 12:22:31;;;;;;;7.38;2.20;;;;;;;21.77;41.77;95996.06;2075533;28;20214;-61
2023/03/17 12:23:47;;;;;;;4.07;1.50;;;;;;;21.72;40.94;95997.53;2067142;28;20343;-61
2023/03/17 12:25:09;;;;;;;10.98;2.10;;;;;;;21.44;41.48;96001.06;2067722;28;20198;-61
2023/03/17 12:26:15;;;;;;;4.70;2.20;;;;;;;21.13;41.85;95988.16;2067739;28;20199;-61
2023/03/17 12:27:31;;;;;;;10.82;2.15;;;;;;;21.03;41.25;95990.88;2068875;28;20890;-61
2023/03/17 12:28:45;;;;;;;7.68;2.25;;;;;;;21.02;40.80;95989.22;2075982;28;20209;-60
2023/03/17 12:30:14;;;;;;;8.02;1.95;;;;;;;21.01;39.51;95984.91;2074576;28;20208;-63
2023/03/17 12:31:24;;;;;;;5.10;2.10;;;;;;;20.95;40.01;95990.81;2068870;28;20228;-60
2023/03/17 12:32:44;;;;;;;6.05;2.35;;;;;;;20.94;40.48;95996.25;2070326;28;20248;-60
2023/03/17 12:34:03;;;;;;;5.75;2.42;;;;;;;20.88;40.11;95989.72;2067129;28;20226;-63
2023/03/17 12:35:25;;;;;;;6.22;2.50;;;;;;;20.58;40.15;95989.00;2068283;28;20692;-60
2023/03/17 12:36:27;;;;;;;5.53;2.10;;;;;;;20.36;40.40;95985.75;2066879;28;20203;-60
2023/03/17 12:37:29;;;;;;;11.73;2.78;;;;;;;20.65;40.65;95982.13;2066484;28;20285;-60
2023/03/17 12:38:38;;;;;;;6.47;2.85;;;;;;;20.74;41.28;95991.06;2064948;28;20217;-60
2023/03/17 12:39:57;;;;;;;10.80;2.45;;;;;;;20.75;41.43;95981.25;2067502;28;20232;-60
2023/03/17 12:41:19;;;;;;;7.80;2.30;;;;;;;20.67;41.50;95990.78;2065414;28;20241;-60
2023/03/17 12:42:51;;;;;;;6.45;2.40;;;;;;;20.53;42.12;95983.31;2067629;28;20210;-60
2023/03/17 12:44:03;;;;;;;10.73;2.47;;;;;;;20.48;42.28;95981.09;2068075;28;20237;-60
2023/03/17 12:45:48;;;;;;;8.80;2.85;;;;;;;20.47;42.29;95982.09;2068362;28;20237;-61
2023/03/17 12:46:58;;;;;;;8.65;2.22;;;;;;;20.29;42.37;95989.13;2069077;28;20256;-61
2023/03/17 12:48:21;;;;;;;7.63;2.83;;;;;;;20.18;43.32;95980.38;2069159;28;20295;-61
2023/03/17 12:49:31;;;;;;;7.63;2.88;;;;;;;20.09;43.04;95977.75;2068638;28;20229;-60
2023/03/17 12:50:51;;;;;;;6.95;2.90;;;;;;;20.21;42.74;95977.44;2069047;28;20285;-60
2023/03/17 12:52:29;;;;;;;6.97;2.20;;;;;;;20.25;41.99;95983.25;2068905;28;20213;-60
2023/03/17 12:53:43;;;;;;;7.05;2.78;;;;;;;20.48;41.11;95973.16;2067109;28;20281;-60
2023/03/17 12:54:48;;;;;;;6.05;2.72;;;;;;;20.46;41.41;95979.59;2068496;28;20692;-61
2023/03/17 12:55:53;;;;;;;26.08;15.00;;;;;;;20.48;41.27;95978.47;2068595;28;20201;-61
2023/03/17 12:57:03;;;;;;;172.02;108.93;;;;;;;20.51;40.46;95972.03;2067536;28;20198;-59
2023/03/17 12:58:39;;;;;;;38.65;21.30;;;;;;;20.39;40.09;95972.22;2069252;28;20216;-60
2023/03/17 12:59:42;;;;;;;25.85;9.75;;;;;;;20.45;40.12;95967.31;2054126;28;20224;-60
2023/03/17 13:01:06;;;;;;;13.52;3.47;;;;;;;20.53;40.13;95970.91;2063591;28;20264;-60